Time;durP1;ratioP1;P1;durP2;ratioP2;P2;SDS_P1;SDS_P2;PMS_P1;PMS_P2;Temp;Humidity;BMP_temperature;BMP_pressure;BME280_temperature;BME280_humidity;BME280_pressure;Samples;Min_cycle;Max_cycle;Signal;HPM_P1;HPM_P2
2022/01/12 00:00:24;;;;;;;3.85;1.27;;;1.70;72.50;;;;;;5117959;27;20024;-74
2022/01/12 00:02:50;;;;;;;3.75;1.75;;;1.50;72.80;;;;;;5121935;27;20026;-75
2022/01/12 00:05:18;;;;;;;3.50;1.52;;;1.70;73.20;;;;;;5131162;27;20508;-75
2022/01/12 00:07:46;;;;;;;6.78;2.05;;;1.80;72.60;;;;;;5121186;27;20093;-75
2022/01/12 00:10:12;;;;;;;4.72;2.22;;;2.00;73.00;;;;;;5127495;27;20030;-75
2022/01/12 00:12:37;;;;;;;8.60;2.95;;;1.90;73.90;;;;;;5119161;27;20019;-75
2022/01/12 00:15:04;;;;;;;5.05;2.10;;;1.80;74.50;;;;;;5126795;27;20024;-75
2022/01/12 00:17:29;;;;;;;4.32;1.88;;;1.60;75.30;;;;;;5125082;27;20514;-75
2022/01/12 00:19:55;;;;;;;4.28;1.80;;;1.70;75.10;;;;;;5126648;27;20027;-75
2022/01/12 00:22:20;;;;;;;4.22;2.22;;;1.90;74.70;;;;;;5123276;27;20492;-75
2022/01/12 00:35:36;;;;;;;6.03;2.15;;;1.90;74.70;;;;;;5125019;27;20123;-75
2022/01/12 00:38:02;;;;;;;4.15;2.03;;;2.00;74.90;;;;;;5119801;27;20489;-75
2022/01/12 00:40:27;;;;;;;4.82;2.33;;;2.00;74.50;;;;;;5126804;27;20083;-75
2022/01/12 00:42:53;;;;;;;7.13;3.15;;;1.80;75.20;;;;;;5124265;27;20481;-75
2022/01/12 00:45:20;;;;;;;9.25;3.80;;;1.70;74.70;;;;;;5123257;27;20036;-75
2022/01/12 00:47:46;;;;;;;5.90;2.88;;;1.50;76.20;;;;;;5126924;27;20434;-75
2022/01/12 00:50:12;;;;;;;5.47;2.38;;;1.20;76.40;;;;;;5130823;28;20106;-75
2022/01/12 00:52:38;;;;;;;5.88;2.83;;;1.30;75.90;;;;;;5121120;27;20063;-75
2022/01/12 00:55:04;;;;;;;5.10;2.30;;;1.20;75.20;;;;;;5119987;27;20051;-75
2022/01/12 00:57:30;;;;;;;3.92;1.88;;;1.20;76.40;;;;;;5127137;27;20620;-75
2022/01/12 00:59:56;;;;;;;5.57;2.22;;;1.10;76.50;;;;;;5130181;27;20215;-75
2022/01/12 01:02:22;;;;;;;7.45;3.08;;;1.40;75.30;;;;;;5123456;27;20381;-75
2022/01/12 01:04:48;;;;;;;5.00;2.70;;;1.20;75.80;;;;;;5124796;27;20055;-75
2022/01/12 01:07:14;;;;;;;8.98;4.13;;;0.90;76.60;;;;;;5121924;27;20038;-75
2022/01/12 01:09:45;;;;;;;5.63;2.92;;;0.80;77.40;;;;;;5124848;27;20547;-75
2022/01/12 01:12:11;;;;;;;6.93;2.83;;;0.80;77.40;;;;;;5121441;27;20072;-75
2022/01/12 01:14:47;;;;;;;3.40;1.83;;;0.60;78.80;;;;;;5128920;27;20061;-75
2022/01/12 01:25:33;;;;;;;5.32;2.00;;;1.10;73.70;;;;;;5130471;27;20646;-75
2022/01/12 01:28:02;;;;;;;3.35;1.50;;;1.10;74.80;;;;;;5123082;27;20040;-75
2022/01/12 01:30:29;;;;;;;3.63;1.45;;;1.00;74.90;;;;;;5127101;27;20067;-75
2022/01/12 01:32:57;;;;;;;4.38;1.38;;;0.90;74.90;;;;;;5129980;27;20366;-75
2022/01/12 01:35:27;;;;;;;5.00;1.60;;;0.80;75.00;;;;;;5129951;27;20065;-74
2022/01/12 01:37:52;;;;;;;4.80;1.65;;;0.80;75.00;;;;;;5127778;27;20098;-75
2022/01/12 01:40:18;;;;;;;7.15;2.10;;;1.10;73.80;;;;;;5122397;27;20094;-74
2022/01/12 01:53:36;;;;;;;3.10;1.35;;;0.90;74.10;;;;;;5130434;27;20535;-75
2022/01/12 01:56:02;;;;;;;4.93;1.38;;;0.60;74.70;;;;;;5132397;27;20098;-75
2022/01/12 01:58:28;;;;;;;2.80;1.35;;;0.60;74.70;;;;;;5132505;27;20118;-75
2022/01/12 02:00:54;;;;;;;4.28;1.75;;;0.40;75.90;;;;;;5124220;27;20115;-75
2022/01/12 02:03:20;;;;;;;2.75;1.20;;;0.50;75.00;;;;;;5129657;27;20079;-75
2022/01/12 02:05:46;;;;;;;6.60;1.52;;;0.50;75.30;;;;;;5126669;27;20027;-75
2022/01/12 02:08:12;;;;;;;4.30;1.80;;;0.40;75.30;;;;;;5129002;27;20050;-75
2022/01/12 02:10:38;;;;;;;5.22;1.70;;;0.50;75.20;;;;;;5125825;27;20106;-75
2022/01/12 02:13:04;;;;;;;3.38;1.42;;;0.60;74.70;;;;;;5124200;27;20070;-75
2022/01/12 02:15:30;;;;;;;5.03;2.08;;;0.90;73.30;;;;;;5130852;27;20531;-74
2022/01/12 02:36:56;;;;;;;2.92;1.33;;;0.60;73.20;;;;;;5121086;27;20407;-75
2022/01/12 02:42:08;;;;;;;2.58;1.13;;;0.40;74.20;;;;;;5131508;27;20064;-74
2022/01/12 02:55:32;;;;;;;3.65;1.25;;;0.70;72.50;;;;;;5123271;27;20372;-75
2022/01/12 02:57:58;;;;;;;2.20;1.02;;;0.60;72.60;;;;;;5124442;27;20051;-74
2022/01/12 03:00:32;;;;;;;9.15;1.67;;;0.70;72.60;;;;;;5122868;27;20063;-75
2022/01/12 03:03:02;;;;;;;4.72;1.92;;;0.70;73.30;;;;;;5125220;27;20381;-75
2022/01/12 03:05:34;;;;;;;9.25;1.50;;;0.60;73.20;;;;;;5127783;27;20087;-74
2022/01/12 03:08:09;;;;;;;3.20;1.48;;;0.60;73.10;;;;;;5123835;27;20110;-75
2022/01/12 03:10:35;;;;;;;3.75;1.10;;;0.70;72.40;;;;;;5129276;27;20080;-74
2022/01/12 03:13:00;;;;;;;2.35;0.90;;;0.70;72.10;;;;;;5119855;27;20020;-75
2022/01/12 03:15:26;;;;;;;3.42;1.20;;;0.70;72.40;;;;;;5130741;27;20035;-74
2022/01/12 03:17:52;;;;;;;1.77;1.05;;;0.80;71.50;;;;;;5124147;27;20473;-75
2022/01/12 03:20:17;;;;;;;4.22;1.05;;;0.90;71.00;;;;;;5131620;27;20027;-75
2022/01/12 03:22:44;;;;;;;3.53;1.27;;;1.00;71.30;;;;;;5127932;27;20030;-74
2022/01/12 03:25:10;;;;;;;3.13;1.38;;;0.60;72.10;;;;;;5130420;27;20051;-74
2022/01/12 03:27:36;;;;;;;2.65;1.08;;;1.00;70.90;;;;;;5125240;27;20062;-74
2022/01/12 03:30:04;;;;;;;5.47;1.45;;;1.20;70.40;;;;;;5125448;27;20019;-74
2022/01/12 03:32:38;;;;;;;2.92;1.30;;;1.20;70.30;;;;;;5109488;27;20087;-75
2022/01/12 03:35:23;;;;;;;4.95;1.98;;;0.60;72.70;;;;;;5125897;27;20100;-74
2022/01/12 03:38:19;;;;;;;5.00;1.30;;;0.60;72.50;;;;;;5126464;27;20038;-74
2022/01/12 03:40:40;;;;;;;3.10;1.05;;;0.90;71.90;;;;;;5123595;27;20031;-75
2022/01/12 03:43:06;;;;;;;3.03;1.33;;;0.60;71.50;;;;;;5127514;27;20386;-75
2022/01/12 03:45:31;;;;;;;2.22;1.00;;;0.80;70.80;;;;;;5120865;27;20026;-75
2022/01/12 03:47:57;;;;;;;3.55;1.33;;;0.80;71.30;;;;;;5127364;27;20494;-75
2022/01/12 03:50:23;;;;;;;3.63;1.20;;;0.80;71.40;;;;;;5125946;27;20031;-75
2022/01/12 03:52:48;;;;;;;3.38;1.20;;;0.70;71.50;;;;;;5128286;27;20043;-75
2022/01/12 03:55:14;;;;;;;3.10;1.27;;;0.60;71.80;;;;;;5128896;27;20019;-75
2022/01/12 03:57:40;;;;;;;2.38;1.10;;;0.80;71.00;;;;;;5128791;27;20023;-75
2022/01/12 04:00:06;;;;;;;2.58;1.10;;;0.90;70.20;;;;;;5123073;27;20027;-74
2022/01/12 04:02:33;;;;;;;3.00;1.15;;;0.90;70.80;;;;;;5118450;27;20487;-74
2022/01/12 04:10:15;;;;;;;2.90;1.23;;;1.20;69.10;;;;;;5118480;27;20054;-73
2022/01/12 04:12:40;;;;;;;2.40;1.17;;;1.20;69.30;;;;;;5117581;27;20461;-74
2022/01/12 04:15:06;;;;;;;3.70;0.70;;;1.30;69.30;;;;;;5122229;27;20061;-74
2022/01/12 04:17:32;;;;;;;1.98;0.90;;;1.40;68.70;;;;;;5118390;27;20034;-74
2022/01/12 04:20:00;;;;;;;2.40;1.00;;;1.30;69.00;;;;;;5119513;27;20031;-73
2022/01/12 04:25:11;;;;;;;4.03;1.05;;;0.90;70.60;;;;;;5122922;27;20033;-74
2022/01/12 04:27:37;;;;;;;1.65;0.77;;;1.10;69.70;;;;;;5121492;27;20255;-73
2022/01/12 04:30:04;;;;;;;3.00;0.93;;;1.50;68.80;;;;;;5119933;27;20035;-74
2022/01/12 04:32:30;;;;;;;1.95;1.00;;;1.60;67.80;;;;;;5107508;27;20035;-73
2022/01/12 04:34:56;;;;;;;2.60;0.88;;;1.30;69.10;;;;;;5122492;27;20088;-74
2022/01/12 04:37:22;;;;;;;2.20;1.02;;;1.50;68.30;;;;;;5121336;27;20113;-74
2022/01/12 04:39:47;;;;;;;4.45;0.90;;;1.40;68.50;;;;;;5123749;27;20031;-74
2022/01/12 04:42:13;;;;;;;2.33;1.13;;;1.50;68.00;;;;;;5121400;27;20016;-73
2022/01/12 04:44:44;;;;;;;2.00;1.38;;;1.00;70.40;;;;;;5119617;27;20491;-74
2022/01/12 04:47:17;;;;;;;3.00;0.70;;;0.80;70.30;;;;;;5122119;27;20039;-74
2022/01/12 04:52:11;;;;;;;3.92;1.23;;;0.70;70.20;;;;;;5118302;27;20031;-73
2022/01/12 04:54:36;;;;;;;2.05;1.15;;;0.80;70.10;;;;;;5119255;27;20557;-73
2022/01/12 04:57:02;;;;;;;1.70;0.80;;;0.50;71.00;;;;;;5124132;27;20087;-74
2022/01/12 04:59:29;;;;;;;1.70;0.63;;;0.50;71.20;;;;;;5122749;27;20473;-74
2022/01/12 05:01:59;;;;;;;2.42;1.00;;;0.60;70.60;;;;;;5124430;27;20034;-74
2022/01/12 05:09:50;;;;;;;2.28;0.93;;;0.80;69.40;;;;;;5121360;27;20034;-74
2022/01/12 05:15:07;;;;;;;3.20;1.05;;;0.50;71.70;;;;;;5119695;27;20046;-74
2022/01/12 05:17:34;;;;;;;2.58;1.00;;;1.00;68.90;;;;;;5124258;27;20019;-73
2022/01/12 05:19:59;;;;;;;3.08;0.85;;;0.90;68.60;;;;;;5124998;27;20080;-73
2022/01/12 05:22:25;;;;;;;5.15;1.10;;;1.20;68.60;;;;;;5118980;27;20035;-73
2022/01/12 05:24:52;;;;;;;1.63;0.75;;;1.40;67.40;;;;;;5115553;27;20038;-74
2022/01/12 05:27:18;;;;;;;3.65;0.90;;;1.00;69.60;;;;;;5117675;27;20031;-74
2022/01/12 05:29:43;;;;;;;2.47;1.33;;;1.00;68.60;;;;;;5121899;27;20026;-73
2022/01/12 05:32:10;;;;;;;1.40;0.70;;;0.80;69.80;;;;;;5121955;27;20027;-74
2022/01/12 05:34:37;;;;;;;3.43;0.90;;;0.70;70.20;;;;;;5092208;27;20454;-74
2022/01/12 05:37:03;;;;;;;2.33;1.10;;;0.60;69.70;;;;;;5116158;27;20020;-74
2022/01/12 05:39:29;;;;;;;1.83;0.63;;;1.00;68.80;;;;;;5118737;27;20084;-73
2022/01/12 05:41:54;;;;;;;3.75;1.25;;;1.40;67.60;;;;;;5123784;27;20023;-73
2022/01/12 05:44:22;;;;;;;3.50;1.10;;;0.90;68.90;;;;;;5119777;27;20031;-74
2022/01/12 05:46:48;;;;;;;2.75;1.00;;;0.90;69.10;;;;;;5119911;27;20027;-74
2022/01/12 05:51:58;;;;;;;1.83;0.80;;;1.00;69.10;;;;;;5125917;27;20102;-74
2022/01/12 05:54:24;;;;;;;2.85;1.25;;;0.80;69.30;;;;;;5118037;27;20114;-74
2022/01/12 05:56:51;;;;;;;4.45;1.83;;;0.50;70.10;;;;;;5118074;27;20885;-74
2022/01/12 05:59:17;;;;;;;2.33;1.00;;;0.60;69.40;;;;;;5124025;27;20027;-74
2022/01/12 06:01:43;;;;;;;2.85;1.35;;;0.40;70.50;;;;;;5120688;27;20529;-73
2022/01/12 06:04:09;;;;;;;3.00;0.98;;;0.30;70.90;;;;;;5120441;27;20094;-73
2022/01/12 06:06:35;;;;;;;4.03;1.27;;;0.10;71.40;;;;;;5119585;27;20047;-74
2022/01/12 06:09:01;;;;;;;2.60;0.98;;;0.30;70.60;;;;;;5114561;27;20039;-74
2022/01/12 06:11:27;;;;;;;2.03;0.80;;;0.40;69.80;;;;;;5117637;27;20031;-73
2022/01/12 06:13:54;;;;;;;4.95;0.80;;;0.20;70.80;;;;;;5120392;27;20148;-74
2022/01/12 06:16:20;;;;;;;2.45;1.38;;;0.20;71.00;;;;;;5121887;27;20489;-73
2022/01/12 06:18:46;;;;;;;4.07;1.40;;;0.40;69.90;;;;;;5115248;27;20026;-73
2022/01/12 06:21:11;;;;;;;3.85;1.65;;;0.40;69.80;;;;;;5118774;27;20047;-74
2022/01/12 06:23:37;;;;;;;3.35;1.15;;;0.30;70.70;;;;;;5121009;27;20106;-74
2022/01/12 06:26:03;;;;;;;3.78;1.00;;;0.30;70.20;;;;;;5116299;27;20526;-73
2022/01/12 06:31:10;;;;;;;3.00;1.23;;;0.30;73.00;;;;;;5119229;27;20076;-73
2022/01/12 06:33:46;;;;;;;2.80;1.15;;;0.50;70.50;;;;;;5107845;27;20819;-74
2022/01/12 06:36:14;;;;;;;2.40;1.20;;;0.30;71.80;;;;;;5125401;27;20055;-74
2022/01/12 06:38:41;;;;;;;2.70;1.10;;;0.30;70.30;;;;;;5125213;27;20047;-73
2022/01/12 06:41:07;;;;;;;2.20;0.82;;;0.40;69.80;;;;;;5125366;27;20643;-74
2022/01/12 06:43:34;;;;;;;2.07;1.00;;;0.40;70.00;;;;;;5126165;27;20027;-74
2022/01/12 06:46:00;;;;;;;6.40;1.30;;;0.60;68.90;;;;;;5125710;27;20027;-74
2022/01/12 06:48:26;;;;;;;2.57;0.90;;;0.40;69.80;;;;;;5118935;27;20126;-74
2022/01/12 06:50:51;;;;;;;1.70;0.80;;;0.50;70.30;;;;;;5114591;27;20074;-75
2022/01/12 06:53:17;;;;;;;1.73;0.90;;;0.60;69.60;;;;;;5118160;27;20043;-75
2022/01/12 06:55:43;;;;;;;2.03;0.87;;;0.70;68.50;;;;;;5123520;27;20031;-74
2022/01/12 06:58:08;;;;;;;2.22;1.00;;;0.60;69.50;;;;;;5122250;27;20024;-74
2022/01/12 07:00:34;;;;;;;2.53;1.20;;;0.20;70.70;;;;;;5122433;27;20035;-74
2022/01/12 07:03:01;;;;;;;3.03;0.90;;;0.20;70.60;;;;;;5118775;27;20797;-75
2022/01/12 07:05:27;;;;;;;1.27;0.80;;;0.30;70.00;;;;;;5114907;27;20027;-74
2022/01/12 07:07:52;;;;;;;3.67;1.00;;;0.30;70.50;;;;;;5117507;27;20038;-74
2022/01/12 07:10:18;;;;;;;1.58;0.80;;;0.60;69.30;;;;;;5124280;27;20034;-74
2022/01/12 07:12:44;;;;;;;2.22;0.90;;;0.70;69.00;;;;;;5122763;27;20031;-75
2022/01/12 07:15:09;;;;;;;1.90;0.90;;;0.80;68.60;;;;;;5119285;27;20027;-75
2022/01/12 07:17:35;;;;;;;2.93;1.13;;;1.00;68.20;;;;;;5119251;27;20027;-74
2022/01/12 07:20:02;;;;;;;2.22;0.80;;;0.80;68.70;;;;;;5114196;27;20027;-74
2022/01/12 07:22:29;;;;;;;6.60;1.38;;;0.90;68.10;;;;;;5120441;27;20967;-74
2022/01/12 07:24:55;;;;;;;4.20;1.80;;;1.00;68.10;;;;;;5119675;27;20023;-75
2022/01/12 07:27:21;;;;;;;5.80;1.48;;;1.00;67.80;;;;;;5120874;27;20385;-75
2022/01/12 07:29:46;;;;;;;2.83;1.30;;;0.90;68.20;;;;;;5122355;27;21017;-75
2022/01/12 07:32:12;;;;;;;2.75;1.15;;;0.70;68.70;;;;;;5122952;27;20565;-75
2022/01/12 07:34:38;;;;;;;1.88;0.80;;;0.80;68.20;;;;;;5121969;27;20102;-74
2022/01/12 07:37:04;;;;;;;4.68;1.48;;;1.20;67.20;;;;;;5112369;27;20023;-75
2022/01/12 07:39:29;;;;;;;1.40;0.80;;;1.30;67.00;;;;;;5122795;27;20470;-75
2022/01/12 07:41:55;;;;;;;1.75;1.17;;;1.00;68.10;;;;;;5110214;27;20054;-75
2022/01/12 07:44:21;;;;;;;1.63;0.90;;;1.00;67.80;;;;;;5122583;27;20023;-74
2022/01/12 07:46:47;;;;;;;1.98;0.82;;;0.90;67.90;;;;;;5123752;27;20154;-75
2022/01/12 07:49:13;;;;;;;14.20;7.20;;;0.80;69.20;;;;;;5122637;27;20102;-74
2022/01/12 07:51:38;;;;;;;3.80;1.92;;;0.70;69.30;;;;;;5119321;27;20460;-75
2022/01/12 07:54:04;;;;;;;6.35;3.15;;;0.70;69.60;;;;;;5119361;27;20043;-75
2022/01/12 07:56:30;;;;;;;3.22;1.27;;;1.00;68.30;;;;;;5120724;27;20816;-73
2022/01/12 07:58:56;;;;;;;3.47;1.00;;;1.10;67.80;;;;;;5118092;27;20048;-74
2022/01/12 08:01:22;;;;;;;2.40;1.00;;;1.10;67.60;;;;;;5119067;27;20038;-74
2022/01/12 08:03:49;;;;;;;2.55;1.02;;;1.10;67.50;;;;;;5119331;27;20062;-74
2022/01/12 08:06:15;;;;;;;3.70;1.30;;;0.80;68.70;;;;;;5117845;27;20051;-74
2022/01/12 08:08:40;;;;;;;2.42;1.00;;;0.60;69.50;;;;;;5122416;27;20594;-74
2022/01/12 08:11:06;;;;;;;2.08;0.90;;;0.60;69.50;;;;;;5120142;27;20084;-74
2022/01/12 08:13:32;;;;;;;2.42;1.00;;;1.00;68.20;;;;;;5123294;27;20027;-74
2022/01/12 08:15:57;;;;;;;2.03;1.02;;;1.00;68.40;;;;;;5115141;27;20110;-74
2022/01/12 08:18:23;;;;;;;2.08;0.90;;;1.10;67.90;;;;;;5120119;27;20027;-74
2022/01/12 08:20:49;;;;;;;1.73;0.90;;;0.90;68.60;;;;;;5106430;27;20608;-74
2022/01/12 08:23:14;;;;;;;3.28;1.13;;;1.00;68.10;;;;;;5114942;27;20027;-74
2022/01/12 08:25:40;;;;;;;4.15;0.93;;;1.00;68.00;;;;;;5122506;27;20034;-74
2022/01/12 08:28:07;;;;;;;1.92;0.90;;;1.00;68.20;;;;;;5122089;27;20526;-74
2022/01/12 08:30:34;;;;;;;2.25;1.02;;;0.90;68.20;;;;;;5123922;27;20476;-74
2022/01/12 08:33:02;;;;;;;1.77;1.10;;;0.80;69.20;;;;;;5124262;27;20027;-74
2022/01/12 08:35:28;;;;;;;3.00;1.45;;;0.90;68.20;;;;;;5124992;27;20080;-75
2022/01/12 08:37:54;;;;;;;3.42;0.98;;;1.00;70.60;;;;;;5128653;27;20035;-74
2022/01/12 08:40:20;;;;;;;3.05;1.00;;;0.60;73.30;;;;;;5125669;27;20035;-74
2022/01/12 08:42:47;;;;;;;2.80;1.15;;;0.50;71.90;;;;;;5126642;27;21171;-74
2022/01/12 08:45:13;;;;;;;2.17;1.08;;;0.70;69.40;;;;;;5126194;27;20031;-73
2022/01/12 08:47:40;;;;;;;2.25;0.90;;;0.90;68.50;;;;;;5129461;27;20041;-74
2022/01/12 08:50:07;;;;;;;1.98;0.90;;;1.10;68.10;;;;;;5122792;27;20031;-73
2022/01/12 08:52:33;;;;;;;3.75;1.55;;;1.00;68.80;;;;;;5123551;27;20027;-74
2022/01/12 08:55:00;;;;;;;5.47;1.52;;;0.70;70.70;;;;;;5121227;28;20030;-73
2022/01/12 08:57:30;;;;;;;2.40;1.25;;;0.60;70.80;;;;;;5118463;27;20381;-73
2022/01/12 09:00:00;;;;;;;3.70;1.35;;;0.60;70.90;;;;;;5117226;27;20076;-73
2022/01/12 09:02:26;;;;;;;2.78;1.00;;;1.00;68.20;;;;;;5122207;27;20560;-73
2022/01/12 09:04:52;;;;;;;2.30;0.90;;;1.30;67.70;;;;;;5118516;27;20111;-73
2022/01/12 09:07:18;;;;;;;2.63;1.00;;;0.90;69.00;;;;;;5116529;27;20142;-73
2022/01/12 09:09:44;;;;;;;3.83;0.95;;;1.10;68.30;;;;;;5119942;28;20035;-73
2022/01/12 09:12:10;;;;;;;4.93;0.98;;;1.30;66.60;;;;;;5116758;27;20076;-73
2022/01/12 09:14:36;;;;;;;2.60;0.88;;;1.30;67.70;;;;;;5118095;28;20030;-73
2022/01/12 09:17:02;;;;;;;21.20;6.65;;;1.30;67.10;;;;;;5122326;27;20019;-73
2022/01/12 09:19:29;;;;;;;3.00;1.30;;;1.10;69.50;;;;;;5114024;27;20382;-73
2022/01/12 09:21:56;;;;;;;3.30;1.13;;;1.20;68.30;;;;;;5119143;27;20030;-73
2022/01/12 09:24:21;;;;;;;1.58;0.70;;;1.20;70.20;;;;;;5109881;27;20039;-74
2022/01/12 09:26:49;;;;;;;2.95;1.05;;;1.00;69.60;;;;;;5121160;27;20134;-73
2022/01/12 09:29:15;;;;;;;3.05;1.10;;;1.50;65.90;;;;;;5116315;27;20127;-73
2022/01/12 09:31:40;;;;;;;3.63;1.77;;;1.70;66.20;;;;;;5121117;28;20505;-73
2022/01/12 09:34:07;;;;;;;2.55;0.90;;;1.70;66.00;;;;;;5121578;27;20859;-73
2022/01/12 09:36:32;;;;;;;5.38;1.10;;;1.80;65.20;;;;;;5122686;27;20028;-73
2022/01/12 09:39:00;;;;;;;4.30;1.20;;;2.00;65.00;;;;;;5120218;27;20088;-73
2022/01/12 09:41:27;;;;;;;2.15;0.90;;;2.00;64.80;;;;;;5117184;28;20134;-73
2022/01/12 09:43:54;;;;;;;3.47;1.00;;;2.10;64.60;;;;;;5125476;27;20172;-73
2022/01/12 09:46:23;;;;;;;2.05;0.88;;;1.80;66.40;;;;;;5124535;27;20035;-73
2022/01/12 09:48:49;;;;;;;1.98;0.93;;;1.60;66.70;;;;;;5123856;27;20019;-74
2022/01/12 09:51:14;;;;;;;2.45;0.95;;;1.70;65.40;;;;;;5125012;27;20453;-73
2022/01/12 09:53:41;;;;;;;1.15;0.75;;;1.60;67.80;;;;;;5123230;27;20378;-73
2022/01/12 09:56:19;;;;;;;2.90;1.00;;;2.00;64.50;;;;;;5116426;27;20112;-74
2022/01/12 09:58:45;;;;;;;2.33;0.80;;;2.10;64.20;;;;;;5120765;27;20389;-73
2022/01/12 10:01:10;;;;;;;2.10;0.98;;;2.20;64.20;;;;;;5122120;27;20139;-73
2022/01/12 10:03:37;;;;;;;3.08;0.93;;;2.30;64.20;;;;;;5125604;27;20495;-74
2022/01/12 10:06:16;;;;;;;1.58;0.73;;;2.30;64.20;;;;;;5125298;27;20098;-73
2022/01/12 10:08:42;;;;;;;3.03;1.10;;;2.40;63.60;;;;;;5124608;27;20023;-73
2022/01/12 10:11:12;;;;;;;2.55;1.23;;;2.50;63.50;;;;;;5123258;27;20572;-73
2022/01/12 10:13:40;;;;;;;1.67;0.80;;;2.40;63.90;;;;;;5125236;27;20558;-73
2022/01/12 10:16:15;;;;;;;2.15;1.17;;;2.30;65.00;;;;;;5117250;27;20027;-73
2022/01/12 10:18:51;;;;;;;;;;;2.10;65.70;;;;;;5115177;27;20118;-73
2022/01/12 10:21:37;;;;;;;6.50;1.05;;;2.00;66.10;;;;;;5121648;27;20440;-73
2022/01/12 10:24:12;;;;;;;2.13;0.70;;;1.80;66.90;;;;;;5125496;27;20023;-73
2022/01/12 10:26:43;;;;;;;2.03;1.15;;;1.80;66.30;;;;;;5120333;27;20034;-73
2022/01/12 10:29:20;;;;;;;3.78;1.50;;;1.90;66.40;;;;;;5123566;27;20058;-73
2022/01/12 10:31:53;;;;;;;2.20;1.02;;;1.70;67.20;;;;;;5121528;27;20038;-73
2022/01/12 10:34:49;;;;;;;3.08;1.00;;;1.80;66.30;;;;;;5126986;27;20031;-73
2022/01/12 10:37:22;;;;;;;1.88;0.93;;;1.90;66.50;;;;;;5104662;27;20043;-73
2022/01/12 10:39:49;;;;;;;1.73;0.60;;;1.80;66.40;;;;;;5122695;27;20023;-73
2022/01/12 10:42:22;;;;;;;5.55;0.88;;;2.00;65.20;;;;;;5115762;27;20034;-73
2022/01/12 10:44:50;;;;;;;3.45;1.13;;;2.20;64.00;;;;;;5121841;27;20058;-73
2022/01/12 10:47:24;;;;;;;1.42;0.70;;;2.20;64.20;;;;;;5122521;27;20046;-73
2022/01/12 10:49:55;;;;;;;4.70;1.85;;;2.20;64.50;;;;;;5120616;27;20038;-73
2022/01/12 10:52:25;;;;;;;2.50;1.15;;;2.40;63.90;;;;;;5105119;27;20589;-73
2022/01/12 10:54:53;;;;;;;19.23;9.68;;;2.60;64.60;;;;;;5122309;27;20409;-73
2022/01/12 10:57:26;;;;;;;28.17;15.15;;;2.70;64.70;;;;;;5125895;27;20031;-73
2022/01/12 11:00:04;;;;;;;9.73;5.85;;;2.80;64.60;;;;;;5128128;27;20087;-73
2022/01/12 11:02:31;;;;;;;11.82;6.93;;;3.30;64.20;;;;;;5125863;27;20027;-73
2022/01/12 11:04:58;;;;;;;5.85;3.60;;;3.50;64.30;;;;;;5113648;27;20114;-73
2022/01/12 11:07:25;;;;;;;197.70;93.38;;;3.80;62.10;;;;;;5120072;27;20038;-73
2022/01/12 11:09:54;;;;;;;43.80;26.85;;;3.80;62.20;;;;;;5125404;27;20019;-73
2022/01/12 11:12:20;;;;;;;11.02;6.60;;;4.00;62.80;;;;;;5121405;27;20514;-74
2022/01/12 11:14:46;;;;;;;7.47;5.25;;;3.90;62.40;;;;;;5120610;27;20023;-74
2022/01/12 11:17:12;;;;;;;6.43;4.88;;;3.90;63.40;;;;;;5118528;27;20016;-74
2022/01/12 11:19:44;;;;;;;4.22;2.28;;;4.00;64.00;;;;;;5122416;27;20445;-73
2022/01/12 11:22:25;;;;;;;5.82;1.30;;;4.20;63.80;;;;;;5126801;27;21128;-74
2022/01/12 11:24:53;;;;;;;2.72;1.50;;;4.10;62.90;;;;;;5121235;27;20031;-73
2022/01/12 11:27:23;;;;;;;3.15;1.20;;;4.10;62.80;;;;;;5123728;27;20602;-73
2022/01/12 11:29:48;;;;;;;3.28;1.45;;;4.10;62.80;;;;;;5108334;27;20485;-74
2022/01/12 11:32:22;;;;;;;4.35;2.03;;;4.30;63.30;;;;;;5125538;27;20098;-74
2022/01/12 11:34:59;;;;;;;3.97;1.52;;;4.30;63.60;;;;;;5121651;27;20027;-74
2022/01/12 11:37:25;;;;;;;3.92;1.70;;;4.40;64.20;;;;;;5118114;27;20091;-74
2022/01/12 11:39:51;;;;;;;3.13;1.40;;;4.90;64.30;;;;;;5118744;27;20023;-74
2022/01/12 11:42:18;;;;;;;3.63;1.30;;;5.20;64.50;;;;;;5121064;27;20031;-74
2022/01/12 11:44:44;;;;;;;3.03;1.20;;;5.20;62.70;;;;;;5123518;27;20031;-74
2022/01/12 11:47:15;;;;;;;2.63;0.82;;;5.10;63.00;;;;;;5116720;27;20035;-74
2022/01/12 11:49:47;;;;;;;3.17;1.13;;;5.10;62.50;;;;;;5125205;27;20458;-74
2022/01/12 11:52:26;;;;;;;3.95;1.40;;;5.10;62.80;;;;;;5118401;27;20027;-74
2022/01/12 11:55:07;;;;;;;4.38;1.50;;;5.00;62.70;;;;;;5077533;28;20055;-74
2022/01/12 11:57:35;;;;;;;6.07;1.67;;;5.10;62.70;;;;;;5076069;28;20489;-74
2022/01/12 12:00:19;;;;;;;5.25;1.33;;;5.00;62.40;;;;;;5085003;28;20078;-74
2022/01/12 12:02:50;;;;;;;3.28;1.27;;;5.10;62.20;;;;;;5083953;28;20482;-74
2022/01/12 12:05:21;;;;;;;4.20;1.30;;;5.10;61.80;;;;;;5085126;28;20032;-74
2022/01/12 12:07:53;;;;;;;4.78;2.63;;;5.20;61.20;;;;;;5080285;28;20044;-74
2022/01/12 12:10:25;;;;;;;2.08;1.15;;;5.70;61.30;;;;;;5085101;28;20529;-74
2022/01/12 12:12:56;;;;;;;3.05;1.33;;;5.70;60.10;;;;;;5084871;28;20024;-74
2022/01/12 12:15:24;;;;;;;3.05;1.15;;;5.70;60.60;;;;;;5077687;28;20032;-74
2022/01/12 12:17:51;;;;;;;3.83;2.00;;;5.70;60.70;;;;;;5077686;28;20471;-74
2022/01/12 12:20:20;;;;;;;3.15;1.90;;;5.90;61.10;;;;;;5081440;28;20657;-74
2022/01/12 12:22:47;;;;;;;6.40;1.40;;;6.00;60.70;;;;;;5083544;28;20573;-74
2022/01/12 12:25:20;;;;;;;4.07;1.50;;;6.00;61.80;;;;;;5084720;28;20024;-74
2022/01/12 12:27:51;;;;;;;2.05;0.90;;;6.00;61.00;;;;;;5079203;28;20072;-74
2022/01/12 12:30:19;;;;;;;9.50;1.60;;;6.00;61.40;;;;;;5081281;28;20466;-74
2022/01/12 12:32:47;;;;;;;8.52;1.67;;;6.00;61.70;;;;;;5077680;28;20028;-74
2022/01/12 12:35:17;;;;;;;7.60;1.70;;;6.00;61.60;;;;;;5083372;28;20028;-74
2022/01/12 12:37:48;;;;;;;8.48;3.70;;;6.00;62.00;;;;;;5078855;28;20116;-74
2022/01/12 12:40:16;;;;;;;4.07;2.70;;;6.10;61.00;;;;;;5083201;28;20032;-74
2022/01/12 12:42:43;;;;;;;3.88;1.83;;;6.10;61.00;;;;;;5077458;28;20039;-74
2022/01/12 12:45:09;;;;;;;6.90;2.15;;;6.00;60.40;;;;;;5084264;28;20024;-74
2022/01/12 12:47:35;;;;;;;4.10;1.30;;;6.10;60.90;;;;;;5082203;28;20359;-74
2022/01/12 12:50:05;;;;;;;4.20;1.50;;;6.20;60.80;;;;;;5082823;28;20073;-74
2022/01/12 12:52:34;;;;;;;2.72;1.60;;;6.10;61.20;;;;;;5075911;28;20028;-74
2022/01/12 12:55:11;;;;;;;4.05;2.03;;;6.30;61.60;;;;;;5116485;28;20031;-74
2022/01/12 12:57:49;;;;;;;5.25;2.08;;;6.20;61.90;;;;;;5114653;27;20110;-74
2022/01/12 13:00:19;;;;;;;6.07;1.55;;;6.20;61.90;;;;;;5118166;27;20624;-74
2022/01/12 13:02:47;;;;;;;4.50;2.05;;;6.20;63.30;;;;;;5114396;27;20030;-74
2022/01/12 13:05:20;;;;;;;8.23;1.70;;;6.30;62.60;;;;;;5124705;28;20110;-74
2022/01/12 13:07:47;;;;;;;5.18;1.30;;;6.20;61.70;;;;;;5123384;27;20494;-74
2022/01/12 13:10:15;;;;;;;3.17;1.33;;;6.10;61.90;;;;;;5125093;27;20033;-74
2022/01/12 13:13:07;;;;;;;4.10;1.48;;;6.10;61.70;;;;;;5124850;27;20031;-75
2022/01/12 13:15:47;;;;;;;3.58;1.15;;;6.10;61.70;;;;;;5124205;28;20027;-74
2022/01/12 13:18:25;;;;;;;3.78;1.52;;;6.00;61.50;;;;;;5123122;27;20583;-74
2022/01/12 13:21:09;;;;;;;3.85;1.73;;;6.10;62.00;;;;;;5125177;27;20097;-74
2022/01/12 13:23:51;;;;;;;3.95;1.27;;;6.10;62.10;;;;;;5124241;27;20050;-74
2022/01/12 13:26:23;;;;;;;1.88;1.00;;;6.10;62.20;;;;;;5128080;27;20043;-74
2022/01/12 13:28:50;;;;;;;2.88;1.00;;;6.20;62.40;;;;;;5123709;27;20023;-74
2022/01/12 13:31:18;;;;;;;3.20;1.23;;;6.10;60.50;;;;;;5124802;27;20054;-74
2022/01/12 13:33:46;;;;;;;3.45;1.55;;;6.00;61.50;;;;;;5124291;27;20027;-75
2022/01/12 13:36:16;;;;;;;3.25;1.48;;;6.10;61.40;;;;;;5124428;27;20469;-74
2022/01/12 13:38:46;;;;;;;3.30;1.60;;;6.20;62.00;;;;;;5106512;27;20439;-74
2022/01/12 13:41:18;;;;;;;2.85;1.23;;;6.20;61.20;;;;;;5124614;27;20027;-74
2022/01/12 13:43:48;;;;;;;3.97;1.40;;;6.10;62.00;;;;;;5114224;27;20079;-74
2022/01/12 13:46:15;;;;;;;4.90;1.55;;;6.10;61.80;;;;;;5126430;27;20378;-74
2022/01/12 13:49:08;;;;;;;3.38;1.30;;;6.20;62.50;;;;;;5128059;27;20454;-75
2022/01/12 13:51:37;;;;;;;4.13;1.70;;;6.20;62.30;;;;;;5124928;27;20684;-74
2022/01/12 13:54:09;;;;;;;17.38;10.43;;;6.20;62.10;;;;;;5128565;27;20127;-74
2022/01/12 13:56:37;;;;;;;23.25;14.25;;;6.20;62.00;;;;;;5120855;27;20028;-75
2022/01/12 13:59:04;;;;;;;15.05;8.88;;;6.10;61.80;;;;;;5127444;27;20031;-74
2022/01/12 14:01:31;;;;;;;4.57;2.30;;;6.20;62.00;;;;;;5128532;27;20042;-74
2022/01/12 14:04:07;;;;;;;9.77;4.78;;;6.10;62.40;;;;;;5115290;27;20553;-74
2022/01/12 14:06:41;;;;;;;8.25;5.00;;;6.00;62.30;;;;;;5121024;27;20449;-74
2022/01/12 14:09:24;;;;;;;10.77;5.30;;;6.00;61.70;;;;;;5128021;27;20039;-74
2022/01/12 14:11:50;;;;;;;10.02;5.07;;;6.00;62.40;;;;;;5125623;27;20051;-74
2022/01/12 14:14:17;;;;;;;6.72;4.25;;;6.10;63.20;;;;;;5123847;27;20514;-74
2022/01/12 14:16:43;;;;;;;5.93;3.72;;;6.10;63.30;;;;;;5125398;27;20027;-74
2022/01/12 14:19:09;;;;;;;5.13;1.85;;;6.10;63.20;;;;;;5124960;27;20080;-74
2022/01/12 14:21:36;;;;;;;5.57;2.05;;;6.10;64.50;;;;;;5119732;27;20029;-74
2022/01/12 14:24:09;;;;;;;3.17;1.73;;;6.00;64.30;;;;;;5126576;27;20035;-75
2022/01/12 14:26:40;;;;;;;6.72;3.30;;;6.00;64.00;;;;;;5128501;27;20863;-74
2022/01/12 14:29:07;;;;;;;17.35;2.97;;;6.00;63.50;;;;;;5121118;27;20027;-75